Time;durP1;ratioP1;P1;durP2;ratioP2;P2;SDS_P1;SDS_P2;PMS_P1;PMS_P2;Temp;Humidity;BMP_temperature;BMP_pressure;BME280_temperature;BME280_humidity;BME280_pressure;Samples;Min_cycle;Max_cycle;Signal;HPM_P1;HPM_P2
2021/06/28 00:01:23;;;;;;;15.67;14.77;;;20.50;99.90;;;;;;5011787;28;20446;-66
2021/06/28 00:03:50;;;;;;;16.73;15.73;;;20.50;99.90;;;;;;5011841;28;20478;-66
2021/06/28 00:06:18;;;;;;;16.53;15.57;;;20.40;99.90;;;;;;5012052;28;20532;-66
2021/06/28 00:08:44;;;;;;;16.10;14.97;;;20.40;99.90;;;;;;5012131;28;20776;-66
2021/06/28 00:11:12;;;;;;;16.63;15.63;;;20.40;99.90;;;;;;5011907;28;20465;-66
2021/06/28 00:13:41;;;;;;;16.40;15.40;;;20.40;99.90;;;;;;5012122;28;20496;-65
2021/06/28 00:16:10;;;;;;;17.17;16.00;;;20.30;99.90;;;;;;5011635;28;20496;-66
2021/06/28 00:18:38;;;;;;;16.80;15.90;;;20.30;99.90;;;;;;5011937;28;20820;-66
2021/06/28 00:21:06;;;;;;;16.43;15.53;;;20.40;99.90;;;;;;5011659;28;20450;-66
2021/06/28 00:23:33;;;;;;;18.23;17.13;;;20.30;99.90;;;;;;5011859;28;20485;-66
2021/06/28 00:26:00;;;;;;;16.80;15.80;;;20.30;99.90;;;;;;5011871;28;20474;-66
2021/06/28 00:28:26;;;;;;;15.77;15.07;;;20.20;99.90;;;;;;5011804;28;20449;-65
2021/06/28 00:30:55;;;;;;;16.80;15.50;;;20.20;99.90;;;;;;5011731;28;20446;-66
2021/06/28 00:33:23;;;;;;;17.80;16.50;;;20.20;99.90;;;;;;5011508;28;20520;-66
2021/06/28 00:35:50;;;;;;;16.73;15.63;;;20.20;99.90;;;;;;5011838;28;20976;-66
2021/06/28 00:38:17;;;;;;;16.90;15.90;;;20.20;99.90;;;;;;5011871;28;20453;-66
2021/06/28 00:40:45;;;;;;;17.50;16.50;;;20.10;99.90;;;;;;5011736;28;20446;-66
2021/06/28 00:43:13;;;;;;;17.33;16.17;;;20.10;99.90;;;;;;5011553;28;20508;-66
2021/06/28 00:45:40;;;;;;;16.20;15.10;;;20.10;99.90;;;;;;5011429;28;20478;-66
2021/06/28 00:48:09;;;;;;;18.07;16.60;;;20.10;99.90;;;;;;5011561;28;20446;-66
2021/06/28 00:50:40;;;;;;;16.60;15.60;;;20.10;99.90;;;;;;5011685;28;20449;-65
2021/06/28 00:53:08;;;;;;;15.90;14.90;;;20.00;99.90;;;;;;5011440;28;20811;-65
2021/06/28 00:55:36;;;;;;;17.00;15.83;;;20.00;99.90;;;;;;5011456;28;20474;-66
2021/06/28 00:58:03;;;;;;;16.20;15.20;;;20.00;99.90;;;;;;5011450;28;20443;-65
2021/06/28 01:00:30;;;;;;;18.10;16.50;;;19.90;99.90;;;;;;5011562;28;20452;-65
2021/06/28 01:02:57;;;;;;;16.97;15.90;;;19.90;99.90;;;;;;5011276;28;20453;-65
2021/06/28 01:05:28;;;;;;;16.40;15.40;;;19.70;99.90;;;;;;5011456;28;20470;-66
2021/06/28 01:07:56;;;;;;;16.00;14.97;;;19.70;99.90;;;;;;5011482;28;20446;-65
2021/06/28 01:10:23;;;;;;;17.20;15.90;;;19.60;99.90;;;;;;5011596;28;20458;-66
2021/06/28 01:12:51;;;;;;;16.77;15.50;;;19.50;99.90;;;;;;5011010;28;20952;-66
2021/06/28 01:15:19;;;;;;;16.93;15.93;;;19.40;99.90;;;;;;5011484;28;20458;-66
2021/06/28 01:17:46;;;;;;;17.60;16.40;;;19.30;99.90;;;;;;5011169;28;20442;-66
2021/06/28 01:20:15;;;;;;;17.70;16.60;;;19.20;99.90;;;;;;5011549;28;20453;-66
2021/06/28 01:22:43;;;;;;;16.73;15.53;;;19.20;99.90;;;;;;5011157;28;20453;-66
2021/06/28 01:25:15;;;;;;;16.83;15.73;;;19.10;99.90;;;;;;5011304;28;20493;-65
2021/06/28 01:27:43;;;;;;;16.87;15.87;;;19.10;99.90;;;;;;5012727;28;20461;-65
2021/06/28 01:30:12;;;;;;;16.50;15.30;;;19.10;99.90;;;;;;5014720;28;20445;-66
2021/06/28 01:32:40;;;;;;;16.47;15.23;;;19.00;99.90;;;;;;5014595;28;20446;-66
2021/06/28 01:35:08;;;;;;;17.17;16.00;;;19.00;99.90;;;;;;5014667;28;20582;-66
2021/06/28 01:37:35;;;;;;;15.73;14.83;;;19.00;99.90;;;;;;5014826;28;20808;-65
2021/06/28 01:40:05;;;;;;;16.70;15.50;;;19.00;99.90;;;;;;5014586;28;20457;-66
2021/06/28 01:42:35;;;;;;;16.93;15.73;;;19.00;99.90;;;;;;5014525;28;20940;-65
2021/06/28 01:45:02;;;;;;;15.70;14.53;;;19.00;99.90;;;;;;5014375;28;20509;-65
2021/06/28 01:47:29;;;;;;;15.00;14.20;;;19.00;99.90;;;;;;5014718;28;20451;-65
2021/06/28 01:49:55;;;;;;;17.10;15.90;;;19.00;99.90;;;;;;5014806;28;20442;-65
2021/06/28 01:52:22;;;;;;;15.70;14.80;;;18.90;99.90;;;;;;5014363;28;20449;-65
2021/06/28 01:54:49;;;;;;;16.00;14.87;;;18.90;99.90;;;;;;5014108;28;20473;-65
2021/06/28 01:57:15;;;;;;;14.80;13.80;;;18.90;99.90;;;;;;5014530;28;20453;-66
2021/06/28 01:59:43;;;;;;;18.70;17.03;;;18.90;99.90;;;;;;5014494;28;20450;-66
2021/06/28 02:02:10;;;;;;;15.77;14.43;;;18.90;99.90;;;;;;5014028;28;20445;-66
2021/06/28 02:04:37;;;;;;;17.17;15.57;;;18.90;99.90;;;;;;5014188;28;20493;-65
2021/06/28 02:07:06;;;;;;;15.77;14.83;;;19.00;99.90;;;;;;5014201;28;20442;-66
2021/06/28 02:09:33;;;;;;;16.40;15.20;;;19.00;99.90;;;;;;5013842;28;20447;-66
2021/06/28 02:12:00;;;;;;;15.53;14.50;;;19.00;99.90;;;;;;5014066;28;20454;-66
2021/06/28 02:14:27;;;;;;;16.43;15.37;;;19.10;99.90;;;;;;5013971;28;20466;-65
2021/06/28 02:16:56;;;;;;;17.07;15.47;;;19.10;99.90;;;;;;5014185;28;20927;-66
2021/06/28 02:19:22;;;;;;;14.57;13.67;;;19.00;99.90;;;;;;5014048;28;20827;-65
2021/06/28 02:21:49;;;;;;;16.77;15.63;;;19.00;99.90;;;;;;5013683;28;20971;-65
2021/06/28 02:24:17;;;;;;;15.97;14.90;;;19.00;99.90;;;;;;5013589;28;20850;-66
2021/06/28 02:26:45;;;;;;;16.67;15.33;;;19.00;99.90;;;;;;5013957;28;20468;-66
2021/06/28 02:29:12;;;;;;;17.20;15.83;;;19.00;99.90;;;;;;5013838;28;20449;-66
2021/06/28 02:31:39;;;;;;;15.70;14.60;;;19.00;99.90;;;;;;5013535;28;20460;-66
2021/06/28 02:34:07;;;;;;;15.37;14.37;;;19.00;99.90;;;;;;5013801;28;20449;-65
2021/06/28 02:36:34;;;;;;;16.23;15.13;;;19.00;99.90;;;;;;5013558;28;20827;-66
2021/06/28 02:39:02;;;;;;;17.50;16.13;;;19.00;99.90;;;;;;5012428;28;20938;-65
2021/06/28 02:41:29;;;;;;;17.80;16.40;;;19.00;99.90;;;;;;5013348;28;20449;-66
2021/06/28 02:43:56;;;;;;;19.37;17.67;;;19.00;99.90;;;;;;5013545;28;20474;-65
2021/06/28 02:46:24;;;;;;;20.00;18.50;;;19.00;99.90;;;;;;5013283;28;20478;-66
2021/06/28 02:48:51;;;;;;;17.03;15.67;;;18.90;99.90;;;;;;5013486;28;20446;-66
2021/06/28 02:51:19;;;;;;;18.30;16.80;;;18.90;99.90;;;;;;5012932;28;20454;-66
2021/06/28 02:53:47;;;;;;;20.03;18.43;;;18.90;99.90;;;;;;5013300;28;20442;-65
2021/06/28 02:56:16;;;;;;;19.60;18.10;;;18.80;99.90;;;;;;5013334;28;20819;-65
2021/06/28 02:58:46;;;;;;;19.33;17.63;;;18.80;99.90;;;;;;5013278;28;20817;-66
2021/06/28 03:01:14;;;;;;;18.97;17.57;;;18.80;99.90;;;;;;5013179;28;20442;-65
2021/06/28 03:03:41;;;;;;;17.90;16.63;;;18.80;99.90;;;;;;5012923;28;20986;-65
2021/06/28 03:06:08;;;;;;;19.57;18.27;;;18.80;99.90;;;;;;5012990;28;20982;-65
2021/06/28 03:08:36;;;;;;;19.30;17.90;;;18.80;99.90;;;;;;5013157;28;20785;-65
2021/06/28 03:11:04;;;;;;;19.47;17.87;;;18.70;99.90;;;;;;5012950;28;20446;-66
2021/06/28 03:13:31;;;;;;;20.50;19.00;;;18.70;99.90;;;;;;5012925;28;20450;-65
2021/06/28 03:15:58;;;;;;;17.97;16.67;;;18.70;99.90;;;;;;5012445;28;20466;-66
2021/06/28 03:18:25;;;;;;;18.90;17.40;;;18.70;99.90;;;;;;5012686;28;20809;-66
2021/06/28 03:20:53;;;;;;;17.50;16.10;;;18.70;99.90;;;;;;5012909;28;20446;-66
2021/06/28 03:23:20;;;;;;;17.43;16.23;;;18.70;99.90;;;;;;5012619;28;20452;-66
2021/06/28 03:25:48;;;;;;;19.50;17.80;;;18.80;99.90;;;;;;5012766;28;20481;-66
2021/06/28 03:28:15;;;;;;;18.47;16.73;;;18.70;99.90;;;;;;5012752;28;20442;-66
2021/06/28 03:30:42;;;;;;;19.03;17.33;;;18.60;99.90;;;;;;5012435;28;20469;-66
2021/06/28 03:33:09;;;;;;;18.87;17.30;;;18.60;99.90;;;;;;5012252;28;20447;-66
2021/06/28 03:35:36;;;;;;;18.63;16.90;;;18.70;99.90;;;;;;5012493;28;20484;-66
2021/06/28 03:38:03;;;;;;;17.63;16.13;;;18.70;99.90;;;;;;5012603;28;20439;-66
2021/06/28 03:40:32;;;;;;;17.80;16.20;;;18.70;99.90;;;;;;5012622;28;20442;-66
2021/06/28 03:43:02;;;;;;;18.87;17.57;;;18.70;99.90;;;;;;5012174;28;20847;-66
2021/06/28 03:45:29;;;;;;;18.00;16.60;;;18.70;99.90;;;;;;5012253;28;20482;-65
2021/06/28 03:47:55;;;;;;;18.80;17.10;;;18.70;99.90;;;;;;5011970;28;20450;-65
2021/06/28 03:50:22;;;;;;;18.13;16.33;;;18.70;99.90;;;;;;5012021;28;20947;-66
2021/06/28 03:52:49;;;;;;;23.07;21.07;;;18.70;99.90;;;;;;5012237;28;20453;-66
2021/06/28 03:55:16;;;;;;;20.80;18.90;;;18.60;99.90;;;;;;5012205;28;20537;-66
2021/06/28 03:57:42;;;;;;;21.83;20.00;;;18.60;99.90;;;;;;5012349;28;20454;-66
2021/06/28 04:00:13;;;;;;;21.60;19.80;;;18.60;99.90;;;;;;5012151;28;20948;-66
2021/06/28 04:02:42;;;;;;;22.30;20.40;;;18.50;99.90;;;;;;5012017;28;20457;-66
2021/06/28 04:05:10;;;;;;;20.77;18.97;;;18.50;99.90;;;;;;5011488;28;20489;-66
2021/06/28 04:07:37;;;;;;;20.97;19.33;;;18.60;99.90;;;;;;5011446;28;20438;-66
2021/06/28 04:10:05;;;;;;;21.07;19.33;;;18.60;99.90;;;;;;5010140;28;20438;-65
2021/06/28 04:12:31;;;;;;;22.03;20.27;;;18.70;99.90;;;;;;5011663;28;20457;-65
2021/06/28 04:14:58;;;;;;;18.70;17.13;;;18.70;99.90;;;;;;5011843;28;20651;-65
2021/06/28 04:17:27;;;;;;;22.53;20.13;;;18.80;99.90;;;;;;5011899;28;20438;-65
2021/06/28 04:19:54;;;;;;;25.07;22.97;;;18.80;99.90;;;;;;5010753;28;20852;-65
2021/06/28 04:22:21;;;;;;;23.10;21.20;;;18.80;99.90;;;;;;5011595;28;20821;-65
2021/06/28 04:24:47;;;;;;;24.30;22.10;;;18.80;99.90;;;;;;5011630;28;20489;-66
2021/06/28 04:27:14;;;;;;;23.67;21.47;;;18.80;99.90;;;;;;5011913;28;20442;-65
2021/06/28 04:29:41;;;;;;;23.20;20.93;;;18.80;99.90;;;;;;5011506;28;20450;-65
2021/06/28 04:32:08;;;;;;;23.40;21.70;;;18.90;99.90;;;;;;5011487;28;20449;-66
2021/06/28 04:34:38;;;;;;;22.77;20.93;;;18.90;99.90;;;;;;5011774;28;20844;-65
2021/06/28 04:37:05;;;;;;;23.50;21.60;;;18.90;99.90;;;;;;5011252;28;20538;-66
2021/06/28 04:39:31;;;;;;;21.47;19.87;;;19.00;99.90;;;;;;5011471;28;20828;-65
2021/06/28 04:41:58;;;;;;;22.40;20.60;;;19.10;99.90;;;;;;5011503;28;20844;-65
2021/06/28 04:44:25;;;;;;;22.00;20.10;;;19.20;99.90;;;;;;5011281;28;20470;-65
2021/06/28 04:46:51;;;;;;;22.80;20.90;;;19.30;99.90;;;;;;5011739;28;20449;-65
2021/06/28 04:49:18;;;;;;;23.83;21.87;;;19.40;99.90;;;;;;5011565;28;20554;-65
2021/06/28 04:51:47;;;;;;;24.00;21.90;;;19.40;99.90;;;;;;5011029;28;20446;-65
2021/06/28 04:54:13;;;;;;;25.13;22.97;;;19.50;99.90;;;;;;5011260;28;20927;-65
2021/06/28 04:56:40;;;;;;;26.20;23.80;;;19.60;99.90;;;;;;5011492;28;20472;-65
2021/06/28 04:59:06;;;;;;;23.27;21.27;;;19.60;99.90;;;;;;5011532;28;20457;-65
2021/06/28 05:01:33;;;;;;;23.67;21.87;;;19.70;99.90;;;;;;5011237;28;20463;-65
2021/06/28 05:04:00;;;;;;;24.60;22.80;;;19.70;99.90;;;;;;5015257;28;20449;-65
2021/06/28 05:06:27;;;;;;;25.97;23.67;;;19.80;99.90;;;;;;5015334;28;20481;-65
2021/06/28 05:08:55;;;;;;;23.77;21.67;;;19.80;99.90;;;;;;5015048;28;20452;-65
2021/06/28 05:11:21;;;;;;;25.00;22.73;;;19.90;99.90;;;;;;5014982;28;20445;-65
2021/06/28 05:13:48;;;;;;;23.37;21.47;;;20.00;99.90;;;;;;5014939;28;20437;-65
2021/06/28 05:16:15;;;;;;;25.80;23.67;;;20.10;99.90;;;;;;5015090;28;20462;-65
2021/06/28 05:18:41;;;;;;;23.93;22.13;;;20.20;99.90;;;;;;5015003;28;20441;-65
2021/06/28 05:21:08;;;;;;;21.43;19.93;;;20.30;99.90;;;;;;5014922;28;20442;-66
2021/06/28 05:23:35;;;;;;;22.60;20.97;;;20.40;99.90;;;;;;5014848;28;20448;-65
2021/06/28 05:26:03;;;;;;;24.33;22.30;;;20.40;99.90;;;;;;5014495;28;20481;-65
2021/06/28 05:28:30;;;;;;;24.50;22.50;;;20.50;99.90;;;;;;5014833;28;20441;-65
2021/06/28 05:30:57;;;;;;;23.60;21.90;;;20.60;99.90;;;;;;5014425;28;20457;-66
2021/06/28 05:33:23;;;;;;;22.53;20.90;;;20.70;99.90;;;;;;5014691;28;20471;-66
2021/06/28 05:35:50;;;;;;;24.60;22.70;;;20.80;99.90;;;;;;5014624;28;20818;-66
2021/06/28 05:38:17;;;;;;;25.97;23.80;;;20.80;99.90;;;;;;5014634;28;20561;-66
2021/06/28 05:40:43;;;;;;;24.70;23.10;;;20.90;99.90;;;;;;5014543;28;20442;-65
2021/06/28 05:43:11;;;;;;;27.57;25.53;;;21.00;99.90;;;;;;5014499;28;20450;-65
2021/06/28 05:45:38;;;;;;;23.97;22.37;;;21.00;99.90;;;;;;5014367;28;20485;-67
2021/06/28 05:48:06;;;;;;;23.50;22.10;;;21.10;99.90;;;;;;5014519;28;20453;-66
2021/06/28 05:50:33;;;;;;;25.60;23.80;;;21.20;99.90;;;;;;5014215;28;20446;-65
2021/06/28 05:53:02;;;;;;;26.70;24.80;;;21.30;99.90;;;;;;5014248;28;20446;-66
2021/06/28 05:55:29;;;;;;;25.93;24.13;;;21.30;99.90;;;;;;5014177;28;20473;-65
2021/06/28 05:57:55;;;;;;;25.73;23.83;;;21.40;99.90;;;;;;5013988;28;20457;-65
2021/06/28 06:00:24;;;;;;;26.73;24.57;;;21.50;99.90;;;;;;5014293;28;20450;-64
2021/06/28 06:02:50;;;;;;;26.27;24.57;;;21.60;99.90;;;;;;5013635;28;20922;-64
2021/06/28 06:05:18;;;;;;;26.67;24.83;;;21.70;99.90;;;;;;5014059;28;20492;-66
2021/06/28 06:07:44;;;;;;;28.30;26.33;;;21.70;99.90;;;;;;5014169;28;20446;-64
2021/06/28 06:10:13;;;;;;;28.50;26.40;;;21.70;99.90;;;;;;5014124;28;20446;-65
2021/06/28 06:12:41;;;;;;;28.93;26.80;;;21.80;99.90;;;;;;5013508;28;20442;-66
2021/06/28 06:15:10;;;;;;;28.93;26.63;;;22.00;99.90;;;;;;5013871;28;20458;-63
2021/06/28 06:17:38;;;;;;;30.97;28.77;;;22.10;99.90;;;;;;5013580;28;20947;-65
2021/06/28 06:20:05;;;;;;;29.40;27.43;;;22.20;99.90;;;;;;5014012;28;20449;-66
2021/06/28 06:22:32;;;;;;;31.40;29.20;;;22.30;99.90;;;;;;5013518;28;20446;-67
2021/06/28 06:24:59;;;;;;;30.30;28.20;;;22.40;99.90;;;;;;5013539;28;20874;-66
2021/06/28 06:27:25;;;;;;;31.20;29.10;;;22.50;99.90;;;;;;5013718;28;20450;-65
2021/06/28 06:29:52;;;;;;;28.60;26.83;;;22.60;99.90;;;;;;5013661;28;20453;-65
2021/06/28 06:32:19;;;;;;;30.17;28.37;;;22.70;99.90;;;;;;5013267;28;20457;-66
2021/06/28 06:34:47;;;;;;;31.37;29.27;;;22.80;99.90;;;;;;5013656;28;20474;-66
2021/06/28 06:37:13;;;;;;;29.90;28.03;;;22.90;99.90;;;;;;5013767;28;20450;-66
2021/06/28 06:39:40;;;;;;;31.83;29.37;;;23.10;99.90;;;;;;5013488;28;20928;-64
2021/06/28 06:42:07;;;;;;;30.50;28.20;;;23.30;99.90;;;;;;5013216;28;20446;-65
2021/06/28 06:44:34;;;;;;;29.20;27.10;;;23.40;99.90;;;;;;5013148;28;20807;-66
2021/06/28 06:47:01;;;;;;;30.23;28.13;;;23.50;99.90;;;;;;5013221;28;20481;-66
2021/06/28 06:49:28;;;;;;;28.37;26.63;;;23.50;99.90;;;;;;5013312;28;20457;-64
2021/06/28 06:51:56;;;;;;;29.63;27.67;;;23.50;99.90;;;;;;5012960;28;20781;-65
2021/06/28 06:54:23;;;;;;;27.63;25.93;;;23.40;99.90;;;;;;5012909;28;20473;-64
2021/06/28 06:56:50;;;;;;;29.10;27.20;;;23.50;99.90;;;;;;5013171;28;20485;-66
2021/06/28 06:59:16;;;;;;;26.00;24.50;;;23.60;99.90;;;;;;5013051;28;20446;-65
2021/06/28 07:01:43;;;;;;;27.10;25.23;;;23.70;99.90;;;;;;5012678;28;20457;-65
2021/06/28 07:04:10;;;;;;;26.30;24.90;;;23.90;99.90;;;;;;5012618;28;20450;-65
2021/06/28 07:06:37;;;;;;;28.47;26.77;;;24.00;99.90;;;;;;5012971;28;21049;-64
2021/06/28 07:09:05;;;;;;;27.90;26.30;;;24.00;99.90;;;;;;5012913;28;20450;-66
2021/06/28 07:11:32;;;;;;;27.57;25.90;;;24.40;99.90;;;;;;5012736;28;20442;-64
2021/06/28 07:13:59;;;;;;;27.50;25.43;;;24.60;99.90;;;;;;5012784;28;20966;-65
2021/06/28 07:16:30;;;;;;;28.60;26.80;;;25.00;99.90;;;;;;5012852;28;20445;-65
2021/06/28 07:18:57;;;;;;;27.27;25.60;;;25.20;99.90;;;;;;5012709;28;20536;-66
2021/06/28 07:21:24;;;;;;;26.83;25.37;;;25.40;99.90;;;;;;5012616;28;20437;-64
2021/06/28 07:23:52;;;;;;;27.80;26.20;;;25.60;99.90;;;;;;5012677;28;20449;-64
2021/06/28 07:26:21;;;;;;;28.43;26.73;;;25.70;99.90;;;;;;5011993;28;20494;-66
2021/06/28 07:28:48;;;;;;;28.13;26.20;;;25.60;99.90;;;;;;5012615;28;20446;-65
2021/06/28 07:31:15;;;;;;;30.00;28.30;;;25.90;99.90;;;;;;5012452;28;20453;-66
2021/06/28 07:33:42;;;;;;;30.00;28.30;;;26.10;99.90;;;;;;5012130;28;20449;-64
2021/06/28 07:36:10;;;;;;;27.57;25.97;;;26.20;99.90;;;;;;5012430;28;20484;-65
2021/06/28 07:38:37;;;;;;;30.33;28.53;;;26.30;99.90;;;;;;5012549;28;20928;-65
2021/06/28 07:41:04;;;;;;;31.00;29.20;;;26.50;99.90;;;;;;5012219;28;20442;-66
2021/06/28 07:43:32;;;;;;;30.10;28.20;;;26.60;99.90;;;;;;5012260;28;20453;-64
2021/06/28 07:45:59;;;;;;;30.03;28.23;;;26.80;99.90;;;;;;5012097;28;20481;-65
2021/06/28 07:48:26;;;;;;;29.93;28.23;;;26.50;99.90;;;;;;5011957;28;20975;-65
2021/06/28 07:50:53;;;;;;;30.37;28.47;;;26.40;99.90;;;;;;5012223;28;20453;-64
2021/06/28 07:53:20;;;;;;;28.10;26.40;;;26.20;99.90;;;;;;5012007;28;20438;-65
2021/06/28 07:55:47;;;;;;;28.67;26.97;;;26.20;99.90;;;;;;5011901;28;21061;-65
2021/06/28 07:58:14;;;;;;;28.63;26.70;;;26.00;99.90;;;;;;5012261;28;20441;-64
2021/06/28 08:00:42;;;;;;;26.63;25.13;;;26.00;99.90;;;;;;5011817;28;20449;-66
2021/06/28 08:03:09;;;;;;;25.83;24.23;;;25.90;99.90;;;;;;5011907;28;20449;-64
2021/06/28 08:05:37;;;;;;;26.80;25.40;;;25.80;99.90;;;;;;5011879;28;20485;-64
2021/06/28 08:08:04;;;;;;;26.60;25.27;;;25.70;99.90;;;;;;5012058;28;20445;-64
2021/06/28 08:10:31;;;;;;;27.23;25.77;;;25.80;99.90;;;;;;5012045;28;20924;-65
2021/06/28 08:12:58;;;;;;;29.80;28.00;;;25.70;99.90;;;;;;5011748;28;20453;-64
2021/06/28 08:15:25;;;;;;;26.00;24.40;;;25.80;99.90;;;;;;5011831;28;20474;-65
2021/06/28 08:17:53;;;;;;;25.40;23.90;;;25.70;99.90;;;;;;5011564;28;20943;-65
2021/06/28 08:20:21;;;;;;;27.00;25.37;;;25.80;99.90;;;;;;5011847;28;20450;-66
2021/06/28 08:22:49;;;;;;;25.03;23.73;;;26.00;99.90;;;;;;5011668;28;20950;-67
2021/06/28 08:25:16;;;;;;;24.37;23.07;;;26.30;99.90;;;;;;5011765;28;20473;-67
2021/06/28 08:27:44;;;;;;;24.80;23.50;;;26.60;99.90;;;;;;5011730;28;20442;-65
2021/06/28 08:30:12;;;;;;;23.63;22.43;;;27.10;99.90;;;;;;5011654;28;20456;-66
2021/06/28 08:32:39;;;;;;;23.70;22.50;;;27.60;99.20;;;;;;5011485;28;20453;-66
2021/06/28 08:35:08;;;;;;;26.13;24.77;;;27.70;97.60;;;;;;5011505;28;20871;-65
2021/06/28 08:37:35;;;;;;;27.43;25.53;;;28.00;97.00;;;;;;5015095;28;20438;-66
2021/06/28 08:40:01;;;;;;;27.10;25.80;;;28.30;95.90;;;;;;5015878;28;20442;-65
2021/06/28 08:42:28;;;;;;;25.80;24.40;;;28.50;94.30;;;;;;5015452;28;20445;-66
2021/06/28 08:44:55;;;;;;;25.93;24.73;;;28.60;93.20;;;;;;5015671;28;20473;-67
2021/06/28 08:47:24;;;;;;;27.50;26.10;;;28.90;92.40;;;;;;5015520;28;20870;-65
2021/06/28 08:49:51;;;;;;;26.47;25.10;;;29.20;92.50;;;;;;5015301;28;20453;-65
2021/06/28 08:52:21;;;;;;;26.87;25.57;;;29.40;91.30;;;;;;5015010;28;20456;-66
2021/06/28 08:54:48;;;;;;;26.90;25.60;;;29.90;89.70;;;;;;5015360;28;20473;-64
2021/06/28 08:57:14;;;;;;;26.23;24.83;;;30.10;88.20;;;;;;5015746;28;20449;-65
2021/06/28 08:59:41;;;;;;;27.03;25.83;;;30.20;85.50;;;;;;5015395;28;20446;-65
2021/06/28 09:02:08;;;;;;;27.07;25.67;;;30.40;83.40;;;;;;5015141;28;20438;-65
2021/06/28 09:04:35;;;;;;;28.97;27.50;;;30.40;82.30;;;;;;5015255;28;20493;-67
2021/06/28 09:07:20;;;;;;;26.57;25.27;;;30.30;81.70;;;;;;5014841;28;20849;-66
2021/06/28 09:09:47;;;;;;;25.43;24.23;;;30.20;82.20;;;;;;5015195;28;20449;-64
2021/06/28 09:12:15;;;;;;;26.53;25.23;;;30.20;80.60;;;;;;5015279;28;20437;-64
2021/06/28 09:14:50;;;;;;;25.20;23.90;;;30.20;80.00;;;;;;5015070;28;20519;-65
2021/06/28 09:17:31;;;;;;;26.40;25.10;;;30.00;81.10;;;;;;5015192;28;20941;-64
2021/06/28 09:20:16;;;;;;;26.37;25.17;;;30.00;82.60;;;;;;5015009;28;20473;-65
2021/06/28 09:22:46;;;;;;;27.03;25.73;;;30.10;78.50;;;;;;5014080;28;20445;-65
2021/06/28 09:25:33;;;;;;;27.73;26.27;;;30.30;77.40;;;;;;5014838;28;20994;-65
2021/06/28 09:28:01;;;;;;;29.37;27.83;;;30.50;77.20;;;;;;5014623;28;21182;-67
2021/06/28 09:30:28;;;;;;;27.53;26.03;;;30.70;76.60;;;;;;5014787;28;20452;-64
2021/06/28 09:32:56;;;;;;;28.73;27.30;;;31.00;75.80;;;;;;5014581;28;20449;-66
2021/06/28 09:35:31;;;;;;;29.97;28.43;;;31.20;73.70;;;;;;5014518;28;20472;-66
2021/06/28 09:38:02;;;;;;;27.73;26.10;;;31.30;73.10;;;;;;5014781;28;20441;-66
2021/06/28 09:40:30;;;;;;;26.30;25.10;;;31.50;70.50;;;;;;5014406;28;20815;-65
2021/06/28 09:42:56;;;;;;;27.50;26.20;;;31.50;69.60;;;;;;5014510;28;20441;-66
2021/06/28 09:45:24;;;;;;;27.93;26.03;;;31.70;68.10;;;;;;5014327;28;20466;-67
2021/06/28 09:47:51;;;;;;;26.67;25.47;;;31.70;67.70;;;;;;5013762;28;20477;-65
2021/06/28 09:50:21;;;;;;;26.40;25.10;;;31.80;66.80;;;;;;5014344;28;20446;-65
2021/06/28 09:52:50;;;;;;;26.30;25.00;;;31.90;65.20;;;;;;5014327;28;20532;-67
2021/06/28 09:55:23;;;;;;;25.10;23.93;;;31.90;64.80;;;;;;5013927;28;20484;-65
2021/06/28 09:58:08;;;;;;;26.80;25.53;;;31.90;64.90;;;;;;5014363;28;20441;-66
2021/06/28 10:00:37;;;;;;;27.20;25.90;;;31.70;64.00;;;;;;5014054;28;20445;-65
2021/06/28 10:03:05;;;;;;;27.00;25.80;;;31.60;64.50;;;;;;5013982;28;20446;-66
2021/06/28 10:05:35;;;;;;;25.27;24.17;;;31.40;65.30;;;;;;5014155;28;20469;-65
2021/06/28 10:08:02;;;;;;;25.73;24.53;;;31.60;67.20;;;;;;5014049;28;20562;-66
2021/06/28 10:10:31;;;;;;;26.53;25.33;;;31.40;64.90;;;;;;5014032;28;20460;-65
2021/06/28 10:13:06;;;;;;;25.93;24.70;;;31.40;65.40;;;;;;5013468;28;21017;-65
2021/06/28 10:15:35;;;;;;;25.73;23.60;;;31.10;65.20;;;;;;5013925;28;20475;-65
2021/06/28 10:18:03;;;;;;;25.90;24.50;;;31.10;66.30;;;;;;5013870;28;20516;-65
2021/06/28 10:20:32;;;;;;;24.13;23.03;;;31.10;65.90;;;;;;5014015;28;20452;-65
2021/06/28 10:23:00;;;;;;;24.17;23.07;;;31.00;65.50;;;;;;5013705;28;20512;-64
2021/06/28 10:25:28;;;;;;;24.40;23.30;;;30.80;66.70;;;;;;5013708;28;20461;-66
2021/06/28 10:27:57;;;;;;;25.37;24.07;;;30.60;66.90;;;;;;5013484;28;20476;-65
2021/06/28 10:30:26;;;;;;;25.40;24.20;;;30.50;68.40;;;;;;4998320;28;20446;-64
2021/06/28 10:33:00;;;;;;;24.73;23.53;;;30.40;69.20;;;;;;5013103;28;20450;-65
2021/06/28 10:35:32;;;;;;;25.77;24.23;;;30.40;70.60;;;;;;5013339;28;20466;-62
2021/06/28 10:38:04;;;;;;;25.30;24.10;;;30.70;70.60;;;;;;5013320;28;20549;-65
2021/06/28 10:40:49;;;;;;;26.50;25.07;;;30.90;70.00;;;;;;5013514;28;20445;-65
2021/06/28 10:43:30;;;;;;;25.30;24.10;;;31.30;69.20;;;;;;5013390;28;20446;-65
2021/06/28 10:45:57;;;;;;;26.33;25.03;;;31.90;67.70;;;;;;5013577;28;20468;-65
2021/06/28 10:48:26;;;;;;;26.10;24.90;;;32.60;65.90;;;;;;5013087;28;20489;-65
2021/06/28 10:51:00;;;;;;;25.70;24.40;;;32.90;64.50;;;;;;5013115;28;20950;-62
2021/06/28 10:54:11;;;;;;;25.97;24.77;;;33.30;64.00;;;;;;5013197;28;20955;-63
2021/06/28 10:56:57;;;;;;;26.30;24.90;;;33.10;62.10;;;;;;5013255;28;20484;-63
2021/06/28 10:59:27;;;;;;;26.93;25.70;;;32.40;61.70;;;;;;5012410;28;20801;-63
2021/06/28 11:02:03;;;;;;;27.67;26.07;;;31.90;63.70;;;;;;5012533;28;20511;-65
2021/06/28 11:04:31;;;;;;;28.83;27.40;;;31.70;64.70;;;;;;5012871;28;20469;-65
2021/06/28 11:07:10;;;;;;;28.53;27.13;;;31.70;63.90;;;;;;5013000;28;20488;-66
2021/06/28 11:09:39;;;;;;;27.10;25.53;;;31.90;66.00;;;;;;5012945;28;20449;-65
2021/06/28 11:12:08;;;;;;;27.33;25.90;;;31.80;65.40;;;;;;5012738;28;20951;-65
2021/06/28 11:14:41;;;;;;;25.23;24.13;;;32.50;64.00;;;;;;5012593;28;20603;-62
2021/06/28 11:17:10;;;;;;;27.57;26.27;;;32.60;63.40;;;;;;5012525;28;20813;-63
2021/06/28 11:19:59;;;;;;;28.23;26.73;;;32.80;61.90;;;;;;5012801;28;20481;-62
2021/06/28 11:22:51;;;;;;;27.90;26.53;;;33.10;60.30;;;;;;5012399;28;20473;-63
2021/06/28 11:25:27;;;;;;;26.20;25.00;;;33.20;59.20;;;;;;5012675;28;20461;-63
2021/06/28 11:28:15;;;;;;;27.27;25.97;;;33.10;59.80;;;;;;5012289;28;20480;-63
2021/06/28 11:30:53;;;;;;;25.90;24.67;;;33.40;59.00;;;;;;5012847;28;20445;-63
2021/06/28 11:33:43;;;;;;;27.07;25.87;;;33.50;57.70;;;;;;5012423;28;20954;-63
2021/06/28 11:36:30;;;;;;;27.17;25.53;;;33.60;56.10;;;;;;5012662;28;20465;-63
2021/06/28 11:38:59;;;;;;;26.73;25.53;;;34.00;56.40;;;;;;5012552;28;20460;-65
2021/06/28 11:41:27;;;;;;;27.53;26.07;;;34.20;55.80;;;;;;5012066;28;20529;-65
2021/06/28 11:43:56;;;;;;;26.60;25.10;;;34.60;54.40;;;;;;5056972;23;20482;-65
2021/06/28 11:46:27;;;;;;;26.83;25.43;;;35.20;54.30;;;;;;4987648;28;20439;-66
2021/06/28 11:48:58;;;;;;;27.58;26.27;;;37.40;52.90;;;;;;4992806;28;20203;-66
2021/06/28 11:51:27;;;;;;;31.38;29.52;;;39.70;47.40;;;;;;4992432;28;20204;-64
2021/06/28 11:53:57;;;;;;;28.75;27.35;;;42.50;42.40;;;;;;4992587;28;20219;-63
2021/06/28 11:56:32;;;;;;;27.30;26.10;;;44.90;37.50;;;;;;4992215;28;20668;-64
2021/06/28 11:59:02;;;;;;;30.65;29.15;;;46.50;33.80;;;;;;4992493;28;20207;-64
2021/06/28 12:01:33;;;;;;;25.42;24.23;;;47.10;31.70;;;;;;4992321;28;20576;-64
2021/06/28 12:04:01;;;;;;;27.65;26.55;;;45.60;31.10;;;;;;4992426;28;20318;-64
2021/06/28 12:06:30;;;;;;;27.40;26.30;;;47.30;31.40;;;;;;4992143;28;20211;-64
2021/06/28 12:09:11;;;;;;;26.42;25.42;;;49.10;29.30;;;;;;4992182;28;20567;-64
2021/06/28 12:11:48;;;;;;;26.08;24.98;;;49.50;28.40;;;;;;4992041;28;20211;-64
2021/06/28 12:14:28;;;;;;;26.55;25.45;;;49.90;28.20;;;;;;4992221;28;20222;-64
2021/06/28 12:16:56;;;;;;;25.80;24.80;;;51.20;27.70;;;;;;4992450;28;20206;-64
2021/06/28 12:19:23;;;;;;;25.80;24.88;;;53.00;26.40;;;;;;4992263;28;20214;-65
2021/06/28 12:21:50;;;;;;;25.42;24.42;;;52.60;24.60;;;;;;4992129;28;20207;-65
2021/06/28 12:24:18;;;;;;;24.05;23.20;;;51.40;25.70;;;;;;4991863;28;20223;-64
2021/06/28 12:27:04;;;;;;;23.50;22.70;;;51.80;25.20;;;;;;4992127;28;20211;-64
2021/06/28 12:29:34;;;;;;;22.75;21.95;;;51.30;24.40;;;;;;4992346;28;20242;-64
2021/06/28 12:32:08;;;;;;;23.83;22.75;;;49.20;25.80;;;;;;4991963;28;20702;-65
2021/06/28 12:34:36;;;;;;;26.25;25.25;;;48.40;26.70;;;;;;4992131;28;20753;-64
2021/06/28 12:37:04;;;;;;;25.38;24.35;;;48.10;26.60;;;;;;4991823;28;20199;-64